LTBJ/ADB METAR and TAF weather

Enter ICAO airport designator
Station Type Date Time Source
LTBJ METAR 2022/01/26 07:20 UTC NOAA

LTBJ 260720Z 01016KT 9999 FEW035 02/M06 Q1020 NOSIG


Station Type Date Time Source
LTBJ Decoded METAR 2022/01/26 07:20 UTC NOAA

Izmir / Adnan Menderes, Turkey (LTBJ) 38-16N 027-09E 120M
Jan 26, 2022 - 02:20 AM EST / 2022.01.26 0720 UTC
Wind: from the N (010 degrees) at 18 MPH (16 KT):0
Visibility: greater than 7 mile(s):0
Sky conditions: mostly clear
Temperature: 35 F (2 C)
Windchill: 24 F (-4 C):1
Dew Point: 21 F (-6 C)
Relative Humidity: 55%
Pressure (altimeter): 30.12 in. Hg (1020 hPa)
ob: LTBJ 260720Z 01016KT 9999 FEW035 02/M06 Q1020 NOSIG
cycle: 7

Station Type Date Time Source
LTBJ TAF 2022/01/26 06:03 UTC NOAA

TAF LTBJ 260440Z 2606/2706 36015G25KT 9999 SCT035
BECMG 2615/2618 36012KT CAVOK

Example: see airport list